createdAt,value
2019-06-20T00:02:09.527Z,17.10
2019-06-20T00:04:38.397Z,17.00
2019-06-20T00:07:07.284Z,17.00
2019-06-20T00:09:36.167Z,17.00
2019-06-20T00:12:05.583Z,16.90
2019-06-20T00:14:34.490Z,16.80
2019-06-20T00:17:03.330Z,16.80
2019-06-20T00:19:32.272Z,16.80
2019-06-20T00:22:01.083Z,16.70
2019-06-20T00:24:29.915Z,16.80
2019-06-20T00:26:58.882Z,16.80
2019-06-20T00:29:27.777Z,16.70
2019-06-20T00:31:56.683Z,16.70
2019-06-20T00:34:25.669Z,16.70
2019-06-20T00:36:54.504Z,16.60
2019-06-20T00:39:23.398Z,16.60
2019-06-20T00:41:52.246Z,16.60
2019-06-20T00:44:21.183Z,16.50
2019-06-20T00:46:50.065Z,16.50
2019-06-20T00:49:19.006Z,16.50
2019-06-20T00:51:47.961Z,16.50
2019-06-20T00:54:16.787Z,16.50
2019-06-20T00:56:45.658Z,16.50
2019-06-20T00:59:14.512Z,16.40
2019-06-20T01:01:43.422Z,16.40
2019-06-20T01:04:12.382Z,16.40
2019-06-20T01:06:41.336Z,16.40
2019-06-20T01:09:10.498Z,16.30
2019-06-20T01:11:39.456Z,16.30
2019-06-20T01:14:13.933Z,16.30
2019-06-20T01:16:42.792Z,16.20
2019-06-20T01:19:11.706Z,16.20
2019-06-20T01:21:40.768Z,16.30
2019-06-20T01:24:09.638Z,16.20
2019-06-20T01:26:38.537Z,16.20
2019-06-20T01:29:07.471Z,16.20
2019-06-20T01:31:36.327Z,16.20
2019-06-20T01:34:05.334Z,16.20
2019-06-20T01:36:34.187Z,16.20
2019-06-20T01:39:03.088Z,16.20
2019-06-20T01:41:31.987Z,16.30
2019-06-20T01:44:00.892Z,16.20
2019-06-20T01:46:29.815Z,16.20
2019-06-20T01:48:58.715Z,16.20
2019-06-20T01:51:27.597Z,16.10
2019-06-20T01:53:56.995Z,16.10
2019-06-20T01:56:25.829Z,16.10
2019-06-20T01:58:54.750Z,16.10
2019-06-20T02:01:23.670Z,16.10
2019-06-20T02:03:52.570Z,16.10
2019-06-20T02:06:21.478Z,16.10
2019-06-20T02:08:50.363Z,16.00
2019-06-20T02:11:19.279Z,16.00
2019-06-20T02:13:48.112Z,16.00
2019-06-20T02:16:17.062Z,16.00
2019-06-20T02:18:45.961Z,16.00
2019-06-20T02:21:14.882Z,16.00
2019-06-20T02:23:43.773Z,16.00
2019-06-20T02:26:12.604Z,16.00
2019-06-20T02:28:41.517Z,15.90
2019-06-20T02:31:10.417Z,16.00
2019-06-20T02:33:39.290Z,16.00
2019-06-20T02:36:08.188Z,16.00
2019-06-20T02:38:37.029Z,16.00
2019-06-20T02:41:05.981Z,16.00
2019-06-20T02:43:34.886Z,16.00
2019-06-20T02:46:07.364Z,16.00
2019-06-20T02:48:36.260Z,15.90
2019-06-20T02:51:05.339Z,15.90
2019-06-20T02:53:34.422Z,15.80
2019-06-20T02:56:03.331Z,15.80
2019-06-20T02:58:32.172Z,15.80
2019-06-20T03:01:01.025Z,15.80
2019-06-20T03:03:30.064Z,15.80
2019-06-20T03:05:59.026Z,15.80
2019-06-20T03:08:28.149Z,15.70
2019-06-20T03:10:57.030Z,15.70
2019-06-20T03:13:25.887Z,15.70
2019-06-20T03:15:54.822Z,15.70
2019-06-20T03:18:23.678Z,15.70
2019-06-20T03:20:52.575Z,15.80
2019-06-20T03:23:21.460Z,15.70
2019-06-20T03:25:50.371Z,15.70
2019-06-20T03:28:19.293Z,15.70
2019-06-20T03:30:48.154Z,15.70
2019-06-20T03:33:17.000Z,15.60
2019-06-20T03:35:45.938Z,15.60
2019-06-20T03:38:14.879Z,15.70
2019-06-20T03:40:43.857Z,15.70
2019-06-20T03:43:12.775Z,15.70
2019-06-20T03:45:41.722Z,15.80
2019-06-20T03:48:10.565Z,15.90
2019-06-20T03:50:39.477Z,15.90
2019-06-20T03:53:08.302Z,16.00
2019-06-20T03:55:37.196Z,15.90
2019-06-20T03:58:06.287Z,15.90
2019-06-20T04:00:36.935Z,15.90
2019-06-20T04:03:06.742Z,15.90
2019-06-20T04:05:35.921Z,15.90
2019-06-20T04:08:04.820Z,15.90
2019-06-20T04:10:34.214Z,15.80
2019-06-20T04:13:03.111Z,15.90
2019-06-20T04:15:31.961Z,15.90
2019-06-20T04:18:05.469Z,15.90
2019-06-20T04:20:34.431Z,16.00
2019-06-20T04:23:03.287Z,16.00
2019-06-20T04:25:32.190Z,16.00
2019-06-20T04:28:01.082Z,16.10
2019-06-20T04:30:29.982Z,16.10
2019-06-20T04:32:58.883Z,16.10
2019-06-20T04:35:27.774Z,16.20
2019-06-20T04:37:56.617Z,16.20
2019-06-20T04:40:25.513Z,16.20
2019-06-20T04:42:54.351Z,16.20
2019-06-20T04:45:34.564Z,16.30
2019-06-20T04:47:55.312Z,16.30
2019-06-20T04:50:24.214Z,16.40
2019-06-20T04:52:53.058Z,16.40
2019-06-20T04:55:21.958Z,16.40
2019-06-20T04:57:50.853Z,16.50
2019-06-20T05:00:19.904Z,16.50
2019-06-20T05:02:48.753Z,16.60
2019-06-20T05:05:17.774Z,16.60
2019-06-20T05:07:46.653Z,16.60
2019-06-20T05:10:15.541Z,16.70
2019-06-20T05:12:44.433Z,16.70
2019-06-20T05:15:13.403Z,16.80
2019-06-20T05:17:42.334Z,16.90
2019-06-20T05:20:11.508Z,16.90
2019-06-20T05:22:40.398Z,17.00
2019-06-20T05:25:09.483Z,17.10
2019-06-20T05:27:38.381Z,17.10
2019-06-20T05:30:11.340Z,17.20
2019-06-20T05:32:40.175Z,17.20
2019-06-20T05:35:09.636Z,17.30
2019-06-20T05:37:38.490Z,17.40
2019-06-20T05:40:10.674Z,17.40
2019-06-20T05:42:39.517Z,17.50
2019-06-20T05:45:09.010Z,17.60
2019-06-20T05:47:37.948Z,17.70
2019-06-20T05:50:16.783Z,17.70
2019-06-20T05:52:42.676Z,17.80
2019-06-20T05:55:11.751Z,17.90
2019-06-20T05:57:40.638Z,18.00
2019-06-20T06:00:10.355Z,18.00
2019-06-20T06:02:40.259Z,18.10
2019-06-20T06:05:09.384Z,18.20
2019-06-20T06:07:38.306Z,18.30
2019-06-20T06:10:08.785Z,18.40
2019-06-20T06:12:37.686Z,18.50
2019-06-20T06:15:07.978Z,18.60
2019-06-20T06:17:36.822Z,18.70
2019-06-20T06:20:07.898Z,18.90
2019-06-20T06:22:36.837Z,19.00
2019-06-20T06:25:08.926Z,19.10
2019-06-20T06:27:37.862Z,19.30
2019-06-20T06:30:11.374Z,19.40
2019-06-20T06:32:40.807Z,19.50
2019-06-20T06:35:11.596Z,19.70
2019-06-20T06:37:41.057Z,19.90
2019-06-20T06:40:11.666Z,20.20
2019-06-20T06:42:40.549Z,20.40
2019-06-20T06:45:10.216Z,20.60
2019-06-20T06:47:39.182Z,20.80
2019-06-20T06:50:09.394Z,21.00
2019-06-20T06:52:38.323Z,21.20
2019-06-20T06:55:07.514Z,21.40
2019-06-20T06:57:36.490Z,21.70
2019-06-20T07:00:10.894Z,21.90
2019-06-20T07:02:39.765Z,22.10
2019-06-20T07:05:09.625Z,22.40
2019-06-20T07:07:38.548Z,22.60
2019-06-20T07:10:08.380Z,22.70
2019-06-20T07:12:37.295Z,22.80
2019-06-20T07:15:08.387Z,22.90
2019-06-20T07:17:37.272Z,23.10
2019-06-20T07:20:09.315Z,23.30
2019-06-20T07:22:38.255Z,23.60
2019-06-20T07:25:08.421Z,23.90
2019-06-20T07:27:37.373Z,24.20
2019-06-20T07:30:08.807Z,24.50
2019-06-20T07:32:37.715Z,24.80
2019-06-20T07:35:07.956Z,25.10
2019-06-20T07:37:36.796Z,25.30
2019-06-20T07:40:09.659Z,25.60
2019-06-20T07:42:38.579Z,25.80
2019-06-20T07:45:09.445Z,26.00
2019-06-20T07:47:38.346Z,26.30
2019-06-20T07:50:10.899Z,26.60
2019-06-20T07:52:39.840Z,26.90
2019-06-20T07:55:09.162Z,27.10
2019-06-20T07:57:38.261Z,27.20
2019-06-20T08:00:10.086Z,27.30
2019-06-20T08:02:39.013Z,27.50
2019-06-20T08:05:08.639Z,27.60
2019-06-20T08:07:37.652Z,27.70
2019-06-20T08:10:12.141Z,27.80
2019-06-20T08:12:41.251Z,28.00
2019-06-20T08:15:15.426Z,28.10
2019-06-20T08:17:41.229Z,28.50
2019-06-20T08:20:12.216Z,28.80
2019-06-20T08:22:41.806Z,29.00
2019-06-20T08:25:10.991Z,29.20
2019-06-20T08:27:52.035Z,29.40
2019-06-20T08:30:26.982Z,29.60
2019-06-20T08:32:57.455Z,29.80
2019-06-20T08:35:29.155Z,30.00
2019-06-20T08:37:59.625Z,30.20
2019-06-20T08:40:31.362Z,30.40
2019-06-20T08:43:00.265Z,30.50
2019-06-20T08:45:32.237Z,30.10
2019-06-20T08:48:02.454Z,30.10
2019-06-20T08:50:33.120Z,30.40
2019-06-20T08:53:03.510Z,30.70
2019-06-20T08:55:32.605Z,30.80
2019-06-20T08:58:01.824Z,30.90
2019-06-20T09:00:35.075Z,31.10
2019-06-20T09:03:05.435Z,31.20
2019-06-20T09:05:34.979Z,31.30
2019-06-20T09:08:04.732Z,31.50
2019-06-20T09:10:38.637Z,31.50
2019-06-20T09:13:08.132Z,31.60
2019-06-20T09:15:37.282Z,31.60
2019-06-20T09:18:06.350Z,31.70
2019-06-20T09:20:35.669Z,31.90
2019-06-20T09:23:05.141Z,32.00
2019-06-20T09:25:34.131Z,32.30
2019-06-20T09:28:03.150Z,32.40
2019-06-20T09:30:32.207Z,32.40
2019-06-20T09:33:01.082Z,32.70
2019-06-20T09:35:30.479Z,32.80
2019-06-20T09:37:59.431Z,33.10
2019-06-20T09:40:28.637Z,33.20
2019-06-20T09:42:58.756Z,33.20
2019-06-20T09:45:27.917Z,33.30
2019-06-20T09:47:58.143Z,33.20
2019-06-20T09:50:27.367Z,33.10
2019-06-20T09:52:56.748Z,33.40
2019-06-20T09:55:25.734Z,33.40
2019-06-20T09:57:55.843Z,33.60
2019-06-20T10:00:27.420Z,33.90
2019-06-20T10:02:57.882Z,34.20
2019-06-20T10:05:27.076Z,34.40
2019-06-20T10:07:56.695Z,34.40
2019-06-20T10:10:29.998Z,34.50
2019-06-20T10:12:59.490Z,34.70
2019-06-20T10:15:32.803Z,34.80
2019-06-20T10:18:01.690Z,34.90
2019-06-20T10:20:30.598Z,34.90
2019-06-20T10:22:59.457Z,34.80
2019-06-20T10:25:28.457Z,35.00
2019-06-20T10:27:57.844Z,35.00
2019-06-20T10:30:27.945Z,35.00
2019-06-20T10:32:57.793Z,35.00
2019-06-20T10:35:26.969Z,35.10
2019-06-20T10:37:57.220Z,35.30
2019-06-20T10:40:26.588Z,35.50
2019-06-20T10:42:56.673Z,35.70
2019-06-20T10:45:27.705Z,35.70
2019-06-20T10:47:56.781Z,35.40
2019-06-20T10:50:27.435Z,35.30
2019-06-20T10:52:56.316Z,35.10
2019-06-20T10:55:25.921Z,35.50
2019-06-20T10:57:54.879Z,35.80
2019-06-20T11:00:31.257Z,35.30
2019-06-20T11:02:56.457Z,35.10
2019-06-20T11:05:25.626Z,35.10
2019-06-20T11:07:54.447Z,35.40
2019-06-20T11:10:24.830Z,35.70
2019-06-20T11:12:55.941Z,36.00
2019-06-20T11:15:24.723Z,36.60
2019-06-20T11:17:56.323Z,36.70
2019-06-20T11:20:24.448Z,36.60
2019-06-20T11:22:53.341Z,36.40
2019-06-20T11:25:22.622Z,36.50
2019-06-20T11:27:51.467Z,36.80
2019-06-20T11:30:28.846Z,36.90
2019-06-20T11:32:57.905Z,37.00
2019-06-20T11:35:26.852Z,37.00
2019-06-20T11:37:55.839Z,37.00
2019-06-20T11:40:24.996Z,37.20
2019-06-20T11:42:53.951Z,37.10
2019-06-20T11:45:23.156Z,37.30
2019-06-20T11:47:52.115Z,37.50
2019-06-20T11:50:22.582Z,37.20
2019-06-20T11:52:51.530Z,36.80
2019-06-20T11:55:20.822Z,36.70
2019-06-20T11:57:49.683Z,36.80
2019-06-20T12:00:19.852Z,36.60
2019-06-20T12:02:50.148Z,36.60
2019-06-20T12:05:19.449Z,36.70
2019-06-20T12:07:49.900Z,36.80
2019-06-20T12:10:20.720Z,36.80
2019-06-20T12:12:49.783Z,36.80
2019-06-20T12:15:19.251Z,37.00
2019-06-20T12:17:49.355Z,37.20
2019-06-20T12:20:20.536Z,37.20
2019-06-20T12:22:50.729Z,37.40
2019-06-20T12:25:20.416Z,37.30
2019-06-20T12:27:49.854Z,36.90
2019-06-20T12:30:21.131Z,36.70
2019-06-20T12:32:50.138Z,36.40
2019-06-20T12:35:19.910Z,36.30
2019-06-20T12:37:49.973Z,36.30
2019-06-20T12:40:21.076Z,36.40
2019-06-20T12:42:50.131Z,36.00
2019-06-20T12:45:19.169Z,35.70
2019-06-20T12:47:48.252Z,35.90
2019-06-20T12:50:17.555Z,36.10
2019-06-20T12:52:47.605Z,36.30
2019-06-20T12:55:16.935Z,36.60
2019-06-20T12:57:46.279Z,36.90
2019-06-20T13:00:16.465Z,37.10
2019-06-20T13:02:45.599Z,37.30
2019-06-20T13:05:17.007Z,37.50
2019-06-20T13:07:46.472Z,37.50
2019-06-20T13:10:16.475Z,37.70
2019-06-20T13:12:46.361Z,38.00
2019-06-20T13:15:16.316Z,38.10
2019-06-20T13:17:47.002Z,38.30
2019-06-20T13:20:17.581Z,38.40
2019-06-20T13:22:46.634Z,38.70
2019-06-20T13:25:15.774Z,38.80
2019-06-20T13:27:45.709Z,39.00
2019-06-20T13:30:14.898Z,39.30
2019-06-20T13:32:45.239Z,39.40
2019-06-20T13:35:16.222Z,39.30
2019-06-20T13:37:45.771Z,39.10
2019-06-20T13:40:18.029Z,39.20
2019-06-20T13:42:48.065Z,39.60
2019-06-20T13:45:25.740Z,39.80
2019-06-20T13:47:55.004Z,39.70
2019-06-20T13:50:25.309Z,39.40
2019-06-20T13:52:54.297Z,39.50
2019-06-20T13:55:23.521Z,39.80
2019-06-20T13:57:52.470Z,40.30
2019-06-20T14:00:23.993Z,40.70
2019-06-20T14:02:53.231Z,41.10
2019-06-20T14:05:22.316Z,40.90
2019-06-20T14:07:53.775Z,39.80
2019-06-20T14:10:22.380Z,38.40
2019-06-20T14:12:51.319Z,37.00
2019-06-20T14:15:20.453Z,35.90
2019-06-20T14:17:49.964Z,35.10
2019-06-20T14:20:28.577Z,34.10
2019-06-20T14:22:57.537Z,33.20
2019-06-20T14:25:26.460Z,32.40
2019-06-20T14:27:55.429Z,31.90
2019-06-20T14:30:24.766Z,31.60
2019-06-20T14:32:54.007Z,31.40
2019-06-20T14:35:23.620Z,31.20
2019-06-20T14:37:52.671Z,31.00
2019-06-20T14:40:22.558Z,30.90
2019-06-20T14:42:52.336Z,30.80
2019-06-20T14:45:21.440Z,30.70
2019-06-20T14:47:52.340Z,30.90
2019-06-20T14:50:21.682Z,30.90
2019-06-20T14:52:52.149Z,30.80
2019-06-20T14:55:21.505Z,30.80
2019-06-20T14:57:52.509Z,30.80
2019-06-20T15:00:23.162Z,30.80
2019-06-20T15:02:56.677Z,30.70
2019-06-20T15:05:23.378Z,30.60
2019-06-20T15:07:53.841Z,30.30
2019-06-20T15:10:23.312Z,30.20
2019-06-20T15:12:53.651Z,30.00
2019-06-20T15:15:23.012Z,30.00
2019-06-20T15:17:54.080Z,29.80
2019-06-20T15:20:22.570Z,29.80
2019-06-20T15:22:52.707Z,29.90
2019-06-20T15:25:22.171Z,30.10
2019-06-20T15:27:53.182Z,30.20
2019-06-20T15:30:21.878Z,30.30
2019-06-20T15:33:01.890Z,30.40
2019-06-20T15:35:21.546Z,30.20
2019-06-20T15:37:51.640Z,30.30
2019-06-20T15:40:21.531Z,31.20
2019-06-20T15:42:51.586Z,32.40
2019-06-20T15:45:21.235Z,32.50
2019-06-20T15:47:50.155Z,32.20
2019-06-20T15:50:19.214Z,32.90
2019-06-20T15:52:48.128Z,33.90
2019-06-20T15:55:21.548Z,34.40
2019-06-20T15:57:53.942Z,34.90
2019-06-20T16:00:21.407Z,35.10
2019-06-20T16:02:50.422Z,34.70
2019-06-20T16:05:19.503Z,34.60
2019-06-20T16:07:48.419Z,34.10
2019-06-20T16:10:17.965Z,33.30
2019-06-20T16:12:46.923Z,32.50
2019-06-20T16:15:18.936Z,31.70
2019-06-20T16:17:47.852Z,31.10
2019-06-20T16:20:16.917Z,30.60
2019-06-20T16:22:45.845Z,30.20
2019-06-20T16:25:15.113Z,29.90
2019-06-20T16:27:44.040Z,29.60
2019-06-20T16:30:13.050Z,29.40
2019-06-20T16:32:42.038Z,29.10
2019-06-20T16:35:11.238Z,28.60
2019-06-20T16:37:40.188Z,28.00
2019-06-20T16:40:11.374Z,27.70
2019-06-20T16:42:40.343Z,27.50
2019-06-20T16:45:10.356Z,27.40
2019-06-20T16:47:39.901Z,27.30
2019-06-20T16:50:09.474Z,27.20
2019-06-20T16:52:38.505Z,27.10
2019-06-20T16:55:08.445Z,27.00
2019-06-20T16:57:37.623Z,27.00
2019-06-20T17:00:08.588Z,26.90
2019-06-20T17:02:37.588Z,26.80
2019-06-20T17:05:08.093Z,26.80
2019-06-20T17:07:37.102Z,26.70
2019-06-20T17:10:07.695Z,26.70
2019-06-20T17:12:36.752Z,26.80
2019-06-20T17:15:06.980Z,26.80
2019-06-20T17:17:35.922Z,26.60
2019-06-20T17:20:09.560Z,26.40
2019-06-20T17:22:39.028Z,26.20
2019-06-20T17:25:08.751Z,25.90
2019-06-20T17:27:37.810Z,25.80
2019-06-20T17:30:09.593Z,25.60
2019-06-20T17:32:38.677Z,25.60
2019-06-20T17:35:09.300Z,25.60
2019-06-20T17:37:38.256Z,25.60
2019-06-20T17:40:12.315Z,25.50
2019-06-20T17:42:41.300Z,25.40
2019-06-20T17:45:11.010Z,25.40
2019-06-20T17:47:39.978Z,25.30
2019-06-20T17:50:11.105Z,25.30
2019-06-20T17:52:40.228Z,25.30
2019-06-20T17:55:09.350Z,25.30
2019-06-20T17:57:38.550Z,25.30
2019-06-20T18:00:16.870Z,25.20
2019-06-20T18:02:45.927Z,25.20
2019-06-20T18:05:15.382Z,25.10
2019-06-20T18:07:44.569Z,25.10
2019-06-20T18:10:13.811Z,25.10
2019-06-20T18:12:42.775Z,25.00
2019-06-20T18:15:12.360Z,24.90
2019-06-20T18:17:41.479Z,24.80
2019-06-20T18:20:10.780Z,24.70
2019-06-20T18:22:39.878Z,24.60
2019-06-20T18:25:10.171Z,24.60
2019-06-20T18:27:39.561Z,24.60
2019-06-20T18:30:09.591Z,24.50
2019-06-20T18:32:38.531Z,24.50
2019-06-20T18:35:08.484Z,24.50
2019-06-20T18:37:37.540Z,24.50
2019-06-20T18:40:09.056Z,24.40
2019-06-20T18:42:38.125Z,24.40
2019-06-20T18:45:09.032Z,24.40
2019-06-20T18:47:37.962Z,24.30
2019-06-20T18:50:07.629Z,24.30
2019-06-20T18:52:51.174Z,24.20
2019-06-20T18:55:12.273Z,24.10
2019-06-20T18:57:41.328Z,24.10
2019-06-20T19:00:13.401Z,24.00
2019-06-20T19:02:42.492Z,24.00
2019-06-20T19:05:11.943Z,23.90
2019-06-20T19:07:41.037Z,23.90
2019-06-20T19:10:11.245Z,23.80
2019-06-20T19:12:40.246Z,23.80
2019-06-20T19:15:10.338Z,23.70
2019-06-20T19:17:39.390Z,23.70
2019-06-20T19:20:09.212Z,23.70
2019-06-20T19:22:38.231Z,23.60
2019-06-20T19:25:10.099Z,23.50
2019-06-20T19:27:46.259Z,23.40
2019-06-20T19:30:11.821Z,23.30
2019-06-20T19:32:40.769Z,23.30
2019-06-20T19:35:10.654Z,23.20
2019-06-20T19:37:39.890Z,23.10
2019-06-20T19:40:10.209Z,23.00
2019-06-20T19:42:39.234Z,23.00
2019-06-20T19:45:10.653Z,22.90
2019-06-20T19:47:39.979Z,22.90
2019-06-20T19:50:09.481Z,22.80
2019-06-20T19:52:38.563Z,22.70
2019-06-20T19:55:07.779Z,22.50
2019-06-20T19:57:36.740Z,22.40
2019-06-20T20:00:07.622Z,22.30
2019-06-20T20:02:36.735Z,22.20
2019-06-20T20:05:18.567Z,22.20
2019-06-20T20:07:39.525Z,22.10
2019-06-20T20:10:09.761Z,22.00
2019-06-20T20:12:38.784Z,21.90
2019-06-20T20:15:11.100Z,21.70
2019-06-20T20:17:40.145Z,21.60
2019-06-20T20:20:09.371Z,21.40
2019-06-20T20:22:38.363Z,21.30
2019-06-20T20:25:08.733Z,21.30
2019-06-20T20:27:37.683Z,21.00
2019-06-20T20:30:08.935Z,21.00
2019-06-20T20:32:37.893Z,20.80
2019-06-20T20:35:07.246Z,20.80
2019-06-20T20:37:37.097Z,20.70
2019-06-20T20:40:10.884Z,20.70
2019-06-20T20:42:40.066Z,20.70
2019-06-20T20:45:09.543Z,20.70
2019-06-20T20:47:38.553Z,20.60
2019-06-20T20:50:08.524Z,20.60
2019-06-20T20:52:37.517Z,20.50
2019-06-20T20:55:08.031Z,20.40
2019-06-20T20:57:37.124Z,20.40
2019-06-20T21:00:17.826Z,20.40
2019-06-20T21:02:46.748Z,20.30
2019-06-20T21:05:15.704Z,20.30
2019-06-20T21:07:44.592Z,20.30
2019-06-20T21:10:13.504Z,20.30
2019-06-20T21:12:42.453Z,20.30
2019-06-20T21:15:11.477Z,20.30
2019-06-20T21:17:40.386Z,20.30
2019-06-20T21:20:10.601Z,20.20
2019-06-20T21:22:39.452Z,20.20
2019-06-20T21:25:09.689Z,20.20
2019-06-20T21:27:38.568Z,20.20
2019-06-20T21:30:10.673Z,20.20
2019-06-20T21:32:39.555Z,20.10
2019-06-20T21:35:08.927Z,20.00
2019-06-20T21:37:37.920Z,19.90
2019-06-20T21:40:07.425Z,19.90
2019-06-20T21:42:36.294Z,19.80
2019-06-20T21:45:07.226Z,19.70
2019-06-20T21:47:36.190Z,19.60
2019-06-20T21:50:06.879Z,19.50
2019-06-20T21:52:35.819Z,19.30
2019-06-20T21:55:06.005Z,19.20
2019-06-20T21:57:34.881Z,19.10
2019-06-20T22:00:05.282Z,19.10
2019-06-20T22:02:34.187Z,19.10
2019-06-20T22:05:03.164Z,19.10
2019-06-20T22:07:32.061Z,19.10
2019-06-20T22:10:00.956Z,19.00
2019-06-20T22:12:29.875Z,19.00
2019-06-20T22:14:58.714Z,19.00
2019-06-20T22:17:27.650Z,19.10
2019-06-20T22:19:56.520Z,19.00
2019-06-20T22:22:25.450Z,19.00
2019-06-20T22:24:54.296Z,19.00
2019-06-20T22:27:23.179Z,19.00
2019-06-20T22:29:52.017Z,19.00
2019-06-20T22:32:20.970Z,19.00
2019-06-20T22:34:49.803Z,19.00
2019-06-20T22:37:18.735Z,18.90
2019-06-20T22:39:47.715Z,18.90
2019-06-20T22:42:16.647Z,18.90
2019-06-20T22:44:45.545Z,18.80
2019-06-20T22:47:22.845Z,18.70
2019-06-20T22:49:51.710Z,18.70
2019-06-20T22:52:20.646Z,18.60
2019-06-20T22:54:49.519Z,18.60
2019-06-20T22:57:18.491Z,18.60
2019-06-20T22:59:47.437Z,18.50
2019-06-20T23:02:16.306Z,18.50
2019-06-20T23:04:45.154Z,18.50
2019-06-20T23:07:13.993Z,18.50
2019-06-20T23:09:42.880Z,18.40
2019-06-20T23:12:11.709Z,18.40
2019-06-20T23:14:40.623Z,18.30
2019-06-20T23:17:09.521Z,18.30
2019-06-20T23:19:38.441Z,18.30
2019-06-20T23:22:07.356Z,18.20
2019-06-20T23:24:36.239Z,18.10
2019-06-20T23:27:05.143Z,18.10
2019-06-20T23:29:33.991Z,18.10
2019-06-20T23:32:02.896Z,18.00
2019-06-20T23:34:31.759Z,18.00
2019-06-20T23:37:12.375Z,18.00
2019-06-20T23:39:31.187Z,18.00
2019-06-20T23:42:00.084Z,18.00
2019-06-20T23:44:28.926Z,18.00
2019-06-20T23:46:57.874Z,18.00
2019-06-20T23:49:26.765Z,18.00
2019-06-20T23:51:57.240Z,18.00
2019-06-20T23:54:26.174Z,18.10
2019-06-20T23:56:55.040Z,18.00
2019-06-20T23:59:23.913Z,17.90
